sensor_id;sensor_type;location;lat;lon;timestamp;P1;durP1;ratioP1;P2;durP2;ratioP2
9821;SDS011;4950;46.042;14.472;2023-07-16T00:02:10;8.00;;;4.68;;
9821;SDS011;4950;46.042;14.472;2023-07-16T00:04:37;8.43;;;5.10;;
9821;SDS011;4950;46.042;14.472;2023-07-16T00:07:05;14.93;;;4.82;;
9821;SDS011;4950;46.042;14.472;2023-07-16T00:09:32;10.52;;;4.85;;
9821;SDS011;4950;46.042;14.472;2023-07-16T00:11:59;7.68;;;4.35;;
9821;SDS011;4950;46.042;14.472;2023-07-16T00:14:25;8.57;;;4.47;;
9821;SDS011;4950;46.042;14.472;2023-07-16T00:16:52;9.77;;;4.70;;
9821;SDS011;4950;46.042;14.472;2023-07-16T00:19:19;10.15;;;4.60;;
9821;SDS011;4950;46.042;14.472;2023-07-16T00:21:45;9.88;;;4.82;;
9821;SDS011;4950;46.042;14.472;2023-07-16T00:24:13;8.07;;;4.40;;
9821;SDS011;4950;46.042;14.472;2023-07-16T00:26:40;10.55;;;5.07;;
9821;SDS011;4950;46.042;14.472;2023-07-16T00:29:07;9.77;;;4.68;;
9821;SDS011;4950;46.042;14.472;2023-07-16T00:31:33;9.80;;;5.60;;
9821;SDS011;4950;46.042;14.472;2023-07-16T00:34:00;9.25;;;4.72;;
9821;SDS011;4950;46.042;14.472;2023-07-16T00:36:27;9.43;;;4.90;;
9821;SDS011;4950;46.042;14.472;2023-07-16T00:38:54;7.72;;;4.57;;
9821;SDS011;4950;46.042;14.472;2023-07-16T00:41:22;7.68;;;4.45;;
9821;SDS011;4950;46.042;14.472;2023-07-16T00:43:49;7.07;;;4.90;;
9821;SDS011;4950;46.042;14.472;2023-07-16T00:46:15;8.15;;;4.40;;
9821;SDS011;4950;46.042;14.472;2023-07-16T00:48:42;12.05;;;5.22;;
9821;SDS011;4950;46.042;14.472;2023-07-16T00:51:09;8.23;;;4.68;;
9821;SDS011;4950;46.042;14.472;2023-07-16T00:53:36;13.32;;;5.20;;
9821;SDS011;4950;46.042;14.472;2023-07-16T00:56:03;11.73;;;4.82;;
9821;SDS011;4950;46.042;14.472;2023-07-16T00:58:31;9.65;;;4.40;;
9821;SDS011;4950;46.042;14.472;2023-07-16T01:00:58;10.63;;;4.28;;
9821;SDS011;4950;46.042;14.472;2023-07-16T01:03:25;7.93;;;4.63;;
9821;SDS011;4950;46.042;14.472;2023-07-16T01:05:54;8.60;;;4.57;;
9821;SDS011;4950;46.042;14.472;2023-07-16T01:08:27;12.57;;;4.65;;
9821;SDS011;4950;46.042;14.472;2023-07-16T01:10:58;9.68;;;4.40;;
9821;SDS011;4950;46.042;14.472;2023-07-16T01:13:26;9.80;;;4.83;;
9821;SDS011;4950;46.042;14.472;2023-07-16T01:15:55;13.35;;;4.53;;
9821;SDS011;4950;46.042;14.472;2023-07-16T01:18:22;15.15;;;4.68;;
9821;SDS011;4950;46.042;14.472;2023-07-16T01:20:49;9.90;;;4.70;;
9821;SDS011;4950;46.042;14.472;2023-07-16T01:23:26;9.20;;;4.40;;
9821;SDS011;4950;46.042;14.472;2023-07-16T01:26:17;8.88;;;4.47;;
9821;SDS011;4950;46.042;14.472;2023-07-16T01:31:47;10.57;;;4.30;;
9821;SDS011;4950;46.042;14.472;2023-07-16T01:34:16;11.07;;;5.03;;
9821;SDS011;4950;46.042;14.472;2023-07-16T01:36:43;10.00;;;4.55;;
9821;SDS011;4950;46.042;14.472;2023-07-16T01:39:11;10.83;;;4.83;;
9821;SDS011;4950;46.042;14.472;2023-07-16T01:41:38;11.70;;;4.50;;
9821;SDS011;4950;46.042;14.472;2023-07-16T01:44:04;10.07;;;4.43;;
9821;SDS011;4950;46.042;14.472;2023-07-16T01:46:33;6.28;;;3.80;;
9821;SDS011;4950;46.042;14.472;2023-07-16T01:48:59;7.93;;;3.78;;
9821;SDS011;4950;46.042;14.472;2023-07-16T01:51:26;7.30;;;4.38;;
9821;SDS011;4950;46.042;14.472;2023-07-16T01:53:53;11.85;;;4.75;;
9821;SDS011;4950;46.042;14.472;2023-07-16T01:56:20;10.48;;;4.25;;
9821;SDS011;4950;46.042;14.472;2023-07-16T01:58:46;10.68;;;4.30;;
9821;SDS011;4950;46.042;14.472;2023-07-16T02:01:13;9.50;;;4.35;;
9821;SDS011;4950;46.042;14.472;2023-07-16T02:03:44;9.50;;;4.70;;
9821;SDS011;4950;46.042;14.472;2023-07-16T02:06:10;8.85;;;4.82;;
9821;SDS011;4950;46.042;14.472;2023-07-16T02:08:38;6.95;;;3.78;;
9821;SDS011;4950;46.042;14.472;2023-07-16T02:11:05;10.23;;;5.00;;
9821;SDS011;4950;46.042;14.472;2023-07-16T02:13:32;9.63;;;4.13;;
9821;SDS011;4950;46.042;14.472;2023-07-16T02:15:58;8.80;;;4.00;;
9821;SDS011;4950;46.042;14.472;2023-07-16T02:18:25;11.05;;;4.95;;
9821;SDS011;4950;46.042;14.472;2023-07-16T02:20:53;7.63;;;3.85;;
9821;SDS011;4950;46.042;14.472;2023-07-16T02:23:20;7.93;;;4.18;;
9821;SDS011;4950;46.042;14.472;2023-07-16T02:25:47;8.75;;;4.00;;
9821;SDS011;4950;46.042;14.472;2023-07-16T02:28:13;10.88;;;4.45;;
9821;SDS011;4950;46.042;14.472;2023-07-16T02:30:40;9.20;;;4.43;;
9821;SDS011;4950;46.042;14.472;2023-07-16T02:33:07;9.43;;;4.20;;
9821;SDS011;4950;46.042;14.472;2023-07-16T02:35:34;8.25;;;4.82;;
9821;SDS011;4950;46.042;14.472;2023-07-16T02:38:02;9.93;;;4.55;;
9821;SDS011;4950;46.042;14.472;2023-07-16T02:40:28;8.45;;;4.38;;
9821;SDS011;4950;46.042;14.472;2023-07-16T02:42:55;8.18;;;3.85;;
9821;SDS011;4950;46.042;14.472;2023-07-16T02:45:22;9.75;;;3.90;;
9821;SDS011;4950;46.042;14.472;2023-07-16T02:47:49;7.95;;;4.10;;
9821;SDS011;4950;46.042;14.472;2023-07-16T02:50:17;11.25;;;4.65;;
9821;SDS011;4950;46.042;14.472;2023-07-16T02:52:44;9.10;;;4.30;;
9821;SDS011;4950;46.042;14.472;2023-07-16T02:55:12;7.72;;;4.20;;
9821;SDS011;4950;46.042;14.472;2023-07-16T02:57:39;10.15;;;4.40;;
9821;SDS011;4950;46.042;14.472;2023-07-16T03:00:06;25.85;;;5.15;;
9821;SDS011;4950;46.042;14.472;2023-07-16T03:02:34;9.47;;;4.20;;
9821;SDS011;4950;46.042;14.472;2023-07-16T03:05:01;8.23;;;3.92;;
9821;SDS011;4950;46.042;14.472;2023-07-16T03:07:28;9.65;;;4.38;;
9821;SDS011;4950;46.042;14.472;2023-07-16T03:09:57;8.00;;;4.15;;
9821;SDS011;4950;46.042;14.472;2023-07-16T03:12:25;10.68;;;4.57;;
9821;SDS011;4950;46.042;14.472;2023-07-16T03:14:51;9.85;;;4.35;;
9821;SDS011;4950;46.042;14.472;2023-07-16T03:17:19;15.18;;;5.07;;
9821;SDS011;4950;46.042;14.472;2023-07-16T03:19:46;8.50;;;4.60;;
9821;SDS011;4950;46.042;14.472;2023-07-16T03:22:13;9.68;;;4.95;;
9821;SDS011;4950;46.042;14.472;2023-07-16T03:24:39;9.05;;;4.25;;
9821;SDS011;4950;46.042;14.472;2023-07-16T03:27:06;15.13;;;4.82;;
9821;SDS011;4950;46.042;14.472;2023-07-16T03:29:35;8.07;;;4.30;;
9821;SDS011;4950;46.042;14.472;2023-07-16T03:32:02;11.90;;;4.68;;
9821;SDS011;4950;46.042;14.472;2023-07-16T03:34:29;7.28;;;4.32;;
9821;SDS011;4950;46.042;14.472;2023-07-16T03:36:56;8.05;;;4.25;;
9821;SDS011;4950;46.042;14.472;2023-07-16T03:39:22;8.23;;;4.32;;
9821;SDS011;4950;46.042;14.472;2023-07-16T03:41:49;9.00;;;4.50;;
9821;SDS011;4950;46.042;14.472;2023-07-16T03:44:16;15.65;;;5.00;;
9821;SDS011;4950;46.042;14.472;2023-07-16T03:46:44;9.05;;;4.50;;
9821;SDS011;4950;46.042;14.472;2023-07-16T03:49:10;11.85;;;4.75;;
9821;SDS011;4950;46.042;14.472;2023-07-16T03:51:37;11.27;;;5.05;;
9821;SDS011;4950;46.042;14.472;2023-07-16T03:54:04;9.98;;;4.40;;
9821;SDS011;4950;46.042;14.472;2023-07-16T03:56:31;9.90;;;4.57;;
9821;SDS011;4950;46.042;14.472;2023-07-16T03:58:57;6.35;;;4.03;;
9821;SDS011;4950;46.042;14.472;2023-07-16T04:01:24;10.93;;;5.03;;
9821;SDS011;4950;46.042;14.472;2023-07-16T04:03:52;13.75;;;5.50;;
9821;SDS011;4950;46.042;14.472;2023-07-16T04:06:19;10.80;;;5.40;;
9821;SDS011;4950;46.042;14.472;2023-07-16T04:08:46;8.32;;;4.97;;
9821;SDS011;4950;46.042;14.472;2023-07-16T04:11:12;10.20;;;4.20;;
9821;SDS011;4950;46.042;14.472;2023-07-16T04:13:39;7.60;;;4.30;;
9821;SDS011;4950;46.042;14.472;2023-07-16T04:16:06;10.90;;;4.78;;
9821;SDS011;4950;46.042;14.472;2023-07-16T04:18:32;8.70;;;4.35;;
9821;SDS011;4950;46.042;14.472;2023-07-16T04:21:00;8.25;;;4.72;;
9821;SDS011;4950;46.042;14.472;2023-07-16T04:23:27;11.05;;;4.55;;
9821;SDS011;4950;46.042;14.472;2023-07-16T04:25:55;9.80;;;5.10;;
9821;SDS011;4950;46.042;14.472;2023-07-16T04:28:22;11.98;;;5.55;;
9821;SDS011;4950;46.042;14.472;2023-07-16T04:30:49;11.65;;;4.93;;
9821;SDS011;4950;46.042;14.472;2023-07-16T04:33:15;12.38;;;4.55;;
9821;SDS011;4950;46.042;14.472;2023-07-16T04:35:44;10.15;;;4.63;;
9821;SDS011;4950;46.042;14.472;2023-07-16T04:38:12;8.50;;;4.97;;
9821;SDS011;4950;46.042;14.472;2023-07-16T04:40:41;12.70;;;5.43;;
9821;SDS011;4950;46.042;14.472;2023-07-16T04:43:08;11.13;;;5.60;;
9821;SDS011;4950;46.042;14.472;2023-07-16T04:45:35;15.07;;;5.55;;
9821;SDS011;4950;46.042;14.472;2023-07-16T04:48:02;10.18;;;5.57;;
9821;SDS011;4950;46.042;14.472;2023-07-16T04:50:28;10.18;;;5.07;;
9821;SDS011;4950;46.042;14.472;2023-07-16T04:52:55;10.50;;;5.43;;
9821;SDS011;4950;46.042;14.472;2023-07-16T04:55:23;12.25;;;5.15;;
9821;SDS011;4950;46.042;14.472;2023-07-16T04:57:50;15.63;;;5.78;;
9821;SDS011;4950;46.042;14.472;2023-07-16T05:00:18;10.70;;;5.25;;
9821;SDS011;4950;46.042;14.472;2023-07-16T05:02:45;9.73;;;5.35;;
9821;SDS011;4950;46.042;14.472;2023-07-16T05:05:12;10.00;;;5.07;;
9821;SDS011;4950;46.042;14.472;2023-07-16T05:07:38;11.80;;;5.70;;
9821;SDS011;4950;46.042;14.472;2023-07-16T05:10:06;8.70;;;5.97;;
9821;SDS011;4950;46.042;14.472;2023-07-16T05:12:35;9.95;;;5.43;;
9821;SDS011;4950;46.042;14.472;2023-07-16T05:15:02;10.38;;;5.13;;
9821;SDS011;4950;46.042;14.472;2023-07-16T05:17:29;8.57;;;5.35;;
9821;SDS011;4950;46.042;14.472;2023-07-16T05:19:55;10.77;;;5.50;;
9821;SDS011;4950;46.042;14.472;2023-07-16T05:22:22;9.88;;;5.60;;
9821;SDS011;4950;46.042;14.472;2023-07-16T05:24:49;8.45;;;5.00;;
9821;SDS011;4950;46.042;14.472;2023-07-16T05:27:15;9.07;;;5.40;;
9821;SDS011;4950;46.042;14.472;2023-07-16T05:29:44;10.82;;;4.97;;
9821;SDS011;4950;46.042;14.472;2023-07-16T05:32:10;10.32;;;5.65;;
9821;SDS011;4950;46.042;14.472;2023-07-16T05:34:37;10.77;;;5.28;;
9821;SDS011;4950;46.042;14.472;2023-07-16T05:37:04;9.82;;;5.53;;
9821;SDS011;4950;46.042;14.472;2023-07-16T05:39:31;11.75;;;5.40;;
9821;SDS011;4950;46.042;14.472;2023-07-16T05:41:58;10.30;;;5.63;;
9821;SDS011;4950;46.042;14.472;2023-07-16T05:46:54;10.82;;;5.50;;
9821;SDS011;4950;46.042;14.472;2023-07-16T05:49:21;12.40;;;5.57;;
9821;SDS011;4950;46.042;14.472;2023-07-16T05:51:48;8.93;;;4.88;;
9821;SDS011;4950;46.042;14.472;2023-07-16T05:54:14;7.88;;;5.05;;
9821;SDS011;4950;46.042;14.472;2023-07-16T05:56:41;8.50;;;5.20;;
9821;SDS011;4950;46.042;14.472;2023-07-16T05:59:08;7.57;;;5.10;;
9821;SDS011;4950;46.042;14.472;2023-07-16T06:01:34;11.32;;;5.15;;
9821;SDS011;4950;46.042;14.472;2023-07-16T06:04:03;10.73;;;5.40;;
9821;SDS011;4950;46.042;14.472;2023-07-16T06:06:30;11.30;;;5.05;;
9821;SDS011;4950;46.042;14.472;2023-07-16T06:08:57;10.23;;;5.35;;
9821;SDS011;4950;46.042;14.472;2023-07-16T06:11:23;9.32;;;4.72;;
9821;SDS011;4950;46.042;14.472;2023-07-16T06:13:52;8.35;;;4.93;;
9821;SDS011;4950;46.042;14.472;2023-07-16T06:16:19;9.32;;;5.75;;
9821;SDS011;4950;46.042;14.472;2023-07-16T06:18:46;10.75;;;5.82;;
9821;SDS011;4950;46.042;14.472;2023-07-16T06:21:14;12.35;;;5.88;;
9821;SDS011;4950;46.042;14.472;2023-07-16T06:23:41;11.07;;;5.95;;
9821;SDS011;4950;46.042;14.472;2023-07-16T06:26:08;7.38;;;5.20;;
9821;SDS011;4950;46.042;14.472;2023-07-16T06:28:35;9.77;;;5.53;;
9821;SDS011;4950;46.042;14.472;2023-07-16T06:31:02;14.07;;;5.68;;
9821;SDS011;4950;46.042;14.472;2023-07-16T06:33:28;12.65;;;5.40;;
9821;SDS011;4950;46.042;14.472;2023-07-16T06:35:55;9.50;;;5.63;;
9821;SDS011;4950;46.042;14.472;2023-07-16T06:38:23;10.98;;;5.60;;
9821;SDS011;4950;46.042;14.472;2023-07-16T06:40:50;10.57;;;5.75;;
9821;SDS011;4950;46.042;14.472;2023-07-16T06:43:18;8.85;;;5.28;;
9821;SDS011;4950;46.042;14.472;2023-07-16T06:45:45;14.00;;;5.97;;
9821;SDS011;4950;46.042;14.472;2023-07-16T06:48:12;8.15;;;5.35;;
9821;SDS011;4950;46.042;14.472;2023-07-16T06:50:38;10.48;;;5.25;;
9821;SDS011;4950;46.042;14.472;2023-07-16T06:53:05;9.35;;;5.05;;
9821;SDS011;4950;46.042;14.472;2023-07-16T06:55:33;9.60;;;5.80;;
9821;SDS011;4950;46.042;14.472;2023-07-16T06:58:00;12.43;;;5.43;;
9821;SDS011;4950;46.042;14.472;2023-07-16T07:00:27;9.20;;;5.47;;
9821;SDS011;4950;46.042;14.472;2023-07-16T07:02:53;10.65;;;5.25;;
9821;SDS011;4950;46.042;14.472;2023-07-16T07:05:21;10.87;;;5.67;;
9821;SDS011;4950;46.042;14.472;2023-07-16T07:07:48;11.18;;;5.47;;
9821;SDS011;4950;46.042;14.472;2023-07-16T07:10:15;15.02;;;5.88;;
9821;SDS011;4950;46.042;14.472;2023-07-16T07:12:43;11.57;;;5.97;;
9821;SDS011;4950;46.042;14.472;2023-07-16T07:15:10;10.00;;;5.40;;
9821;SDS011;4950;46.042;14.472;2023-07-16T07:17:36;12.13;;;5.45;;
9821;SDS011;4950;46.042;14.472;2023-07-16T07:20:03;9.85;;;5.28;;
9821;SDS011;4950;46.042;14.472;2023-07-16T07:22:31;10.82;;;5.32;;
9821;SDS011;4950;46.042;14.472;2023-07-16T07:24:58;7.30;;;4.88;;
9821;SDS011;4950;46.042;14.472;2023-07-16T07:27:25;16.10;;;5.82;;
9821;SDS011;4950;46.042;14.472;2023-07-16T07:29:53;9.63;;;5.38;;
9821;SDS011;4950;46.042;14.472;2023-07-16T07:32:21;11.90;;;5.60;;
9821;SDS011;4950;46.042;14.472;2023-07-16T07:34:48;11.07;;;5.93;;
9821;SDS011;4950;46.042;14.472;2023-07-16T07:37:15;13.98;;;6.13;;
9821;SDS011;4950;46.042;14.472;2023-07-16T07:39:41;11.98;;;5.32;;
9821;SDS011;4950;46.042;14.472;2023-07-16T07:42:10;9.90;;;5.50;;
9821;SDS011;4950;46.042;14.472;2023-07-16T07:44:37;14.10;;;5.60;;
9821;SDS011;4950;46.042;14.472;2023-07-16T07:47:06;8.75;;;5.30;;
9821;SDS011;4950;46.042;14.472;2023-07-16T07:49:33;12.18;;;6.13;;
9821;SDS011;4950;46.042;14.472;2023-07-16T07:52:00;10.02;;;5.10;;
9821;SDS011;4950;46.042;14.472;2023-07-16T07:54:27;10.18;;;5.60;;
9821;SDS011;4950;46.042;14.472;2023-07-16T07:56:54;7.90;;;5.13;;
9821;SDS011;4950;46.042;14.472;2023-07-16T07:59:21;11.25;;;6.07;;
9821;SDS011;4950;46.042;14.472;2023-07-16T08:01:47;15.15;;;5.53;;
9821;SDS011;4950;46.042;14.472;2023-07-16T08:04:16;16.77;;;5.75;;
9821;SDS011;4950;46.042;14.472;2023-07-16T08:06:43;10.82;;;5.57;;
9821;SDS011;4950;46.042;14.472;2023-07-16T08:09:09;10.20;;;5.30;;
9821;SDS011;4950;46.042;14.472;2023-07-16T08:11:36;12.82;;;5.20;;
9821;SDS011;4950;46.042;14.472;2023-07-16T08:14:04;8.23;;;5.15;;
9821;SDS011;4950;46.042;14.472;2023-07-16T08:16:31;17.60;;;5.65;;
9821;SDS011;4950;46.042;14.472;2023-07-16T08:18:57;9.40;;;5.43;;
9821;SDS011;4950;46.042;14.472;2023-07-16T08:21:26;11.07;;;5.38;;
9821;SDS011;4950;46.042;14.472;2023-07-16T08:23:52;12.85;;;6.25;;
9821;SDS011;4950;46.042;14.472;2023-07-16T08:26:19;9.55;;;5.25;;
9821;SDS011;4950;46.042;14.472;2023-07-16T08:28:46;9.93;;;5.53;;
9821;SDS011;4950;46.042;14.472;2023-07-16T08:31:12;12.60;;;6.22;;
9821;SDS011;4950;46.042;14.472;2023-07-16T08:33:39;13.25;;;6.38;;
9821;SDS011;4950;46.042;14.472;2023-07-16T08:36:06;11.70;;;5.47;;
9821;SDS011;4950;46.042;14.472;2023-07-16T08:38:34;12.82;;;5.43;;
9821;SDS011;4950;46.042;14.472;2023-07-16T08:41:01;11.35;;;5.68;;
9821;SDS011;4950;46.042;14.472;2023-07-16T08:43:28;13.68;;;5.30;;
9821;SDS011;4950;46.042;14.472;2023-07-16T08:45:55;15.98;;;5.65;;
9821;SDS011;4950;46.042;14.472;2023-07-16T08:48:22;11.18;;;5.20;;
9821;SDS011;4950;46.042;14.472;2023-07-16T08:50:50;9.95;;;5.47;;
9821;SDS011;4950;46.042;14.472;2023-07-16T08:53:17;10.82;;;5.00;;
9821;SDS011;4950;46.042;14.472;2023-07-16T08:55:47;9.43;;;5.43;;
9821;SDS011;4950;46.042;14.472;2023-07-16T09:00:41;12.98;;;5.15;;
9821;SDS011;4950;46.042;14.472;2023-07-16T09:03:09;17.98;;;5.65;;
9821;SDS011;4950;46.042;14.472;2023-07-16T09:05:37;13.95;;;5.53;;
9821;SDS011;4950;46.042;14.472;2023-07-16T09:08:05;11.20;;;5.97;;
9821;SDS011;4950;46.042;14.472;2023-07-16T09:10:32;15.05;;;5.28;;
9821;SDS011;4950;46.042;14.472;2023-07-16T09:13:01;10.13;;;4.88;;
9821;SDS011;4950;46.042;14.472;2023-07-16T09:17:55;13.02;;;5.07;;
9821;SDS011;4950;46.042;14.472;2023-07-16T09:22:53;11.02;;;5.00;;
9821;SDS011;4950;46.042;14.472;2023-07-16T09:25:25;12.57;;;5.28;;
9821;SDS011;4950;46.042;14.472;2023-07-16T09:27:52;10.27;;;4.60;;
9821;SDS011;4950;46.042;14.472;2023-07-16T09:30:21;9.40;;;4.88;;
9821;SDS011;4950;46.042;14.472;2023-07-16T09:32:48;13.20;;;5.13;;
9821;SDS011;4950;46.042;14.472;2023-07-16T09:35:15;9.95;;;5.15;;
9821;SDS011;4950;46.042;14.472;2023-07-16T09:37:43;10.35;;;5.22;;
9821;SDS011;4950;46.042;14.472;2023-07-16T09:40:10;12.30;;;5.40;;
9821;SDS011;4950;46.042;14.472;2023-07-16T09:42:38;10.73;;;5.03;;
9821;SDS011;4950;46.042;14.472;2023-07-16T09:45:06;13.02;;;5.38;;
9821;SDS011;4950;46.042;14.472;2023-07-16T09:47:35;11.38;;;5.72;;
9821;SDS011;4950;46.042;14.472;2023-07-16T09:52:31;15.30;;;5.70;;
9821;SDS011;4950;46.042;14.472;2023-07-16T09:55:00;15.00;;;5.45;;
9821;SDS011;4950;46.042;14.472;2023-07-16T09:57:30;13.43;;;5.43;;
9821;SDS011;4950;46.042;14.472;2023-07-16T10:00:02;10.88;;;5.20;;
9821;SDS011;4950;46.042;14.472;2023-07-16T10:02:33;9.48;;;5.05;;
9821;SDS011;4950;46.042;14.472;2023-07-16T10:05:02;12.48;;;5.72;;
9821;SDS011;4950;46.042;14.472;2023-07-16T10:07:37;11.90;;;5.45;;
9821;SDS011;4950;46.042;14.472;2023-07-16T10:10:07;17.55;;;5.45;;
9821;SDS011;4950;46.042;14.472;2023-07-16T10:12:34;12.00;;;5.00;;
9821;SDS011;4950;46.042;14.472;2023-07-16T10:15:02;12.68;;;5.20;;
9821;SDS011;4950;46.042;14.472;2023-07-16T10:17:30;9.60;;;5.70;;
9821;SDS011;4950;46.042;14.472;2023-07-16T10:19:58;10.00;;;5.07;;
9821;SDS011;4950;46.042;14.472;2023-07-16T10:22:34;11.27;;;5.35;;
9821;SDS011;4950;46.042;14.472;2023-07-16T10:25:07;9.57;;;5.25;;
9821;SDS011;4950;46.042;14.472;2023-07-16T10:27:35;14.13;;;5.13;;
9821;SDS011;4950;46.042;14.472;2023-07-16T10:30:04;12.10;;;4.95;;
9821;SDS011;4950;46.042;14.472;2023-07-16T10:34:59;12.40;;;5.38;;
9821;SDS011;4950;46.042;14.472;2023-07-16T10:37:26;15.25;;;6.03;;
9821;SDS011;4950;46.042;14.472;2023-07-16T10:39:55;13.60;;;5.25;;
9821;SDS011;4950;46.042;14.472;2023-07-16T10:42:23;13.90;;;4.80;;
9821;SDS011;4950;46.042;14.472;2023-07-16T10:44:52;11.18;;;4.63;;
9821;SDS011;4950;46.042;14.472;2023-07-16T10:47:21;12.65;;;4.88;;
9821;SDS011;4950;46.042;14.472;2023-07-16T10:49:49;8.10;;;5.00;;
9821;SDS011;4950;46.042;14.472;2023-07-16T10:52:17;10.55;;;4.82;;
9821;SDS011;4950;46.042;14.472;2023-07-16T10:54:45;15.07;;;5.15;;
9821;SDS011;4950;46.042;14.472;2023-07-16T10:57:13;9.85;;;4.95;;
9821;SDS011;4950;46.042;14.472;2023-07-16T10:59:41;17.85;;;5.82;;
9821;SDS011;4950;46.042;14.472;2023-07-16T11:02:10;8.23;;;4.15;;
9821;SDS011;4950;46.042;14.472;2023-07-16T11:04:38;8.75;;;4.80;;
9821;SDS011;4950;46.042;14.472;2023-07-16T11:07:06;10.88;;;5.07;;
9821;SDS011;4950;46.042;14.472;2023-07-16T11:09:34;11.38;;;4.57;;
9821;SDS011;4950;46.042;14.472;2023-07-16T11:12:07;9.70;;;4.57;;
9821;SDS011;4950;46.042;14.472;2023-07-16T11:14:35;9.83;;;4.47;;
9821;SDS011;4950;46.042;14.472;2023-07-16T11:17:05;11.10;;;4.50;;
9821;SDS011;4950;46.042;14.472;2023-07-16T11:19:33;8.57;;;4.40;;
9821;SDS011;4950;46.042;14.472;2023-07-16T11:22:01;9.40;;;4.57;;
9821;SDS011;4950;46.042;14.472;2023-07-16T11:24:31;7.30;;;4.00;;
9821;SDS011;4950;46.042;14.472;2023-07-16T11:27:02;7.72;;;4.15;;
9821;SDS011;4950;46.042;14.472;2023-07-16T11:29:33;10.02;;;4.70;;
9821;SDS011;4950;46.042;14.472;2023-07-16T11:32:02;12.52;;;4.63;;
9821;SDS011;4950;46.042;14.472;2023-07-16T11:34:31;7.90;;;3.92;;
9821;SDS011;4950;46.042;14.472;2023-07-16T11:37:06;13.18;;;3.90;;
9821;SDS011;4950;46.042;14.472;2023-07-16T11:39:35;11.73;;;4.10;;
9821;SDS011;4950;46.042;14.472;2023-07-16T11:42:02;7.45;;;3.53;;
9821;SDS011;4950;46.042;14.472;2023-07-16T11:44:32;6.85;;;3.58;;
9821;SDS011;4950;46.042;14.472;2023-07-16T11:47:02;8.35;;;3.67;;
9821;SDS011;4950;46.042;14.472;2023-07-16T11:49:29;7.13;;;4.07;;
9821;SDS011;4950;46.042;14.472;2023-07-16T11:54:23;10.15;;;4.20;;
9821;SDS011;4950;46.042;14.472;2023-07-16T11:56:49;13.45;;;4.28;;
9821;SDS011;4950;46.042;14.472;2023-07-16T11:59:16;7.80;;;4.30;;
9821;SDS011;4950;46.042;14.472;2023-07-16T12:01:45;11.77;;;4.97;;
9821;SDS011;4950;46.042;14.472;2023-07-16T12:04:15;16.35;;;4.10;;
9821;SDS011;4950;46.042;14.472;2023-07-16T12:06:42;11.60;;;4.20;;
9821;SDS011;4950;46.042;14.472;2023-07-16T12:09:09;8.45;;;3.50;;
9821;SDS011;4950;46.042;14.472;2023-07-16T12:11:36;6.88;;;3.60;;
9821;SDS011;4950;46.042;14.472;2023-07-16T12:14:04;7.53;;;3.92;;
9821;SDS011;4950;46.042;14.472;2023-07-16T12:16:31;8.63;;;3.80;;
9821;SDS011;4950;46.042;14.472;2023-07-16T12:18:57;9.93;;;4.10;;
9821;SDS011;4950;46.042;14.472;2023-07-16T12:21:26;11.75;;;3.85;;
9821;SDS011;4950;46.042;14.472;2023-07-16T12:23:52;7.68;;;3.60;;
9821;SDS011;4950;46.042;14.472;2023-07-16T12:26:19;7.93;;;3.80;;
9821;SDS011;4950;46.042;14.472;2023-07-16T12:28:46;9.80;;;3.90;;
9821;SDS011;4950;46.042;14.472;2023-07-16T12:31:13;7.63;;;3.97;;
9821;SDS011;4950;46.042;14.472;2023-07-16T12:33:40;7.80;;;3.13;;
9821;SDS011;4950;46.042;14.472;2023-07-16T12:36:07;5.90;;;3.28;;
9821;SDS011;4950;46.042;14.472;2023-07-16T12:38:35;7.35;;;3.42;;
9821;SDS011;4950;46.042;14.472;2023-07-16T12:43:28;12.60;;;3.47;;
9821;SDS011;4950;46.042;14.472;2023-07-16T12:45:57;7.07;;;3.65;;
9821;SDS011;4950;46.042;14.472;2023-07-16T12:48:24;11.15;;;5.05;;
9821;SDS011;4950;46.042;14.472;2023-07-16T12:50:51;8.90;;;3.63;;
9821;SDS011;4950;46.042;14.472;2023-07-16T12:53:18;8.20;;;4.07;;
9821;SDS011;4950;46.042;14.472;2023-07-16T12:55:46;9.50;;;3.70;;
9821;SDS011;4950;46.042;14.472;2023-07-16T13:00:39;9.75;;;4.30;;
9821;SDS011;4950;46.042;14.472;2023-07-16T13:03:05;7.85;;;3.65;;
9821;SDS011;4950;46.042;14.472;2023-07-16T13:05:36;7.18;;;4.03;;
9821;SDS011;4950;46.042;14.472;2023-07-16T13:08:03;7.72;;;3.80;;
9821;SDS011;4950;46.042;14.472;2023-07-16T13:10:30;7.90;;;3.60;;
9821;SDS011;4950;46.042;14.472;2023-07-16T13:12:58;12.95;;;4.13;;
9821;SDS011;4950;46.042;14.472;2023-07-16T13:15:25;10.05;;;3.55;;
9821;SDS011;4950;46.042;14.472;2023-07-16T13:17:52;12.70;;;3.53;;
9821;SDS011;4950;46.042;14.472;2023-07-16T13:20:20;8.57;;;4.18;;
9821;SDS011;4950;46.042;14.472;2023-07-16T13:22:48;11.82;;;3.60;;
9821;SDS011;4950;46.042;14.472;2023-07-16T13:25:15;7.30;;;3.33;;
9821;SDS011;4950;46.042;14.472;2023-07-16T13:27:42;11.70;;;3.10;;
9821;SDS011;4950;46.042;14.472;2023-07-16T13:30:11;8.82;;;3.80;;
9821;SDS011;4950;46.042;14.472;2023-07-16T13:32:38;7.82;;;3.58;;
9821;SDS011;4950;46.042;14.472;2023-07-16T13:35:05;6.63;;;3.40;;
9821;SDS011;4950;46.042;14.472;2023-07-16T13:37:33;7.20;;;3.47;;
9821;SDS011;4950;46.042;14.472;2023-07-16T13:39:59;10.57;;;3.17;;
9821;SDS011;4950;46.042;14.472;2023-07-16T13:42:26;8.57;;;3.28;;
9821;SDS011;4950;46.042;14.472;2023-07-16T13:44:53;6.85;;;3.20;;
9821;SDS011;4950;46.042;14.472;2023-07-16T13:47:21;6.20;;;3.10;;
9821;SDS011;4950;46.042;14.472;2023-07-16T13:52:14;9.20;;;3.20;;
9821;SDS011;4950;46.042;14.472;2023-07-16T13:54:41;9.60;;;3.50;;
9821;SDS011;4950;46.042;14.472;2023-07-16T13:57:08;5.95;;;3.25;;
9821;SDS011;4950;46.042;14.472;2023-07-16T13:59:35;8.75;;;3.53;;
9821;SDS011;4950;46.042;14.472;2023-07-16T14:02:02;6.07;;;3.10;;
9821;SDS011;4950;46.042;14.472;2023-07-16T14:04:31;7.97;;;3.53;;
9821;SDS011;4950;46.042;14.472;2023-07-16T14:06:58;9.82;;;3.58;;
9821;SDS011;4950;46.042;14.472;2023-07-16T14:09:25;5.75;;;3.13;;
9821;SDS011;4950;46.042;14.472;2023-07-16T14:11:51;6.38;;;3.22;;
9821;SDS011;4950;46.042;14.472;2023-07-16T14:14:18;9.05;;;3.15;;
9821;SDS011;4950;46.042;14.472;2023-07-16T14:16:45;6.00;;;3.45;;
9821;SDS011;4950;46.042;14.472;2023-07-16T14:19:12;14.02;;;3.58;;
9821;SDS011;4950;46.042;14.472;2023-07-16T14:21:40;8.55;;;3.53;;
9821;SDS011;4950;46.042;14.472;2023-07-16T14:24:07;7.85;;;3.42;;
9821;SDS011;4950;46.042;14.472;2023-07-16T14:26:35;6.68;;;3.35;;
9821;SDS011;4950;46.042;14.472;2023-07-16T14:29:02;7.70;;;3.30;;
9821;SDS011;4950;46.042;14.472;2023-07-16T14:31:28;6.65;;;3.78;;
9821;SDS011;4950;46.042;14.472;2023-07-16T14:33:55;7.45;;;3.67;;
9821;SDS011;4950;46.042;14.472;2023-07-16T14:36:22;7.97;;;3.50;;
9821;SDS011;4950;46.042;14.472;2023-07-16T14:38:51;5.78;;;2.92;;
9821;SDS011;4950;46.042;14.472;2023-07-16T14:41:17;7.03;;;3.22;;
9821;SDS011;4950;46.042;14.472;2023-07-16T14:43:45;8.52;;;3.00;;
9821;SDS011;4950;46.042;14.472;2023-07-16T14:46:14;7.65;;;3.17;;
9821;SDS011;4950;46.042;14.472;2023-07-16T14:48:42;8.75;;;3.40;;
9821;SDS011;4950;46.042;14.472;2023-07-16T14:51:09;7.82;;;3.30;;
9821;SDS011;4950;46.042;14.472;2023-07-16T14:53:36;7.33;;;3.37;;
9821;SDS011;4950;46.042;14.472;2023-07-16T14:56:04;7.10;;;3.38;;
9821;SDS011;4950;46.042;14.472;2023-07-16T14:58:32;5.13;;;3.13;;
9821;SDS011;4950;46.042;14.472;2023-07-16T15:00:59;6.57;;;2.80;;
9821;SDS011;4950;46.042;14.472;2023-07-16T15:03:28;11.90;;;3.20;;
9821;SDS011;4950;46.042;14.472;2023-07-16T15:05:56;11.88;;;3.38;;
9821;SDS011;4950;46.042;14.472;2023-07-16T15:08:23;9.52;;;3.67;;
9821;SDS011;4950;46.042;14.472;2023-07-16T15:10:51;7.25;;;3.40;;
9821;SDS011;4950;46.042;14.472;2023-07-16T15:13:19;6.70;;;3.35;;
9821;SDS011;4950;46.042;14.472;2023-07-16T15:15:47;9.60;;;3.40;;
9821;SDS011;4950;46.042;14.472;2023-07-16T15:18:14;6.78;;;3.58;;
9821;SDS011;4950;46.042;14.472;2023-07-16T15:20:41;8.57;;;2.85;;
9821;SDS011;4950;46.042;14.472;2023-07-16T15:23:08;6.47;;;3.47;;
9821;SDS011;4950;46.042;14.472;2023-07-16T15:25:34;6.35;;;3.05;;